createdAt,value
2019-02-07T00:02:00.951Z,38.00
2019-02-07T00:05:04.266Z,30.10
2019-02-07T00:08:07.112Z,31.57
2019-02-07T00:11:10.125Z,31.63
2019-02-07T00:14:12.756Z,33.50
2019-02-07T00:17:15.806Z,32.70
2019-02-07T00:20:18.640Z,31.67
2019-02-07T00:23:21.348Z,30.33
2019-02-07T00:26:24.015Z,30.70
2019-02-07T00:29:26.626Z,33.37
2019-02-07T00:32:29.459Z,29.57
2019-02-07T00:35:32.202Z,31.73
2019-02-07T00:38:34.923Z,34.50
2019-02-07T00:41:37.670Z,31.10
2019-02-07T00:44:50.219Z,33.37
2019-02-07T00:47:44.867Z,34.13
2019-02-07T00:50:47.556Z,32.50
2019-02-07T00:53:50.240Z,33.20
2019-02-07T00:56:52.902Z,32.50
2019-02-07T00:59:55.643Z,31.07
2019-02-07T01:02:58.278Z,31.27
2019-02-07T01:06:00.948Z,33.40
2019-02-07T01:09:06.902Z,33.33
2019-02-07T01:12:09.571Z,33.63
2019-02-07T01:15:13.187Z,32.93
2019-02-07T01:18:15.813Z,32.30
2019-02-07T01:21:18.475Z,32.73
2019-02-07T01:24:21.166Z,32.43
2019-02-07T01:27:23.783Z,30.73
2019-02-07T01:30:27.043Z,28.73
2019-02-07T01:33:29.790Z,27.30
2019-02-07T01:36:32.541Z,32.00
2019-02-07T01:39:35.655Z,32.07
2019-02-07T01:42:38.322Z,28.70
2019-02-07T01:45:40.886Z,25.83
2019-02-07T01:48:43.490Z,26.20
2019-02-07T01:51:46.167Z,25.33
2019-02-07T01:54:48.827Z,26.50
2019-02-07T01:57:51.583Z,29.00
2019-02-07T02:00:54.284Z,22.70
2019-02-07T02:03:57.013Z,25.97
2019-02-07T02:06:59.591Z,22.93
2019-02-07T02:10:02.550Z,24.73
2019-02-07T02:13:05.448Z,23.77
2019-02-07T02:16:08.210Z,25.40
2019-02-07T02:19:10.839Z,23.87
2019-02-07T02:22:13.516Z,24.70
2019-02-07T02:25:16.850Z,25.57
2019-02-07T02:28:19.664Z,28.17
2019-02-07T02:31:22.326Z,27.20
2019-02-07T02:34:25.181Z,25.63
2019-02-07T02:37:27.868Z,28.77
2019-02-07T02:40:30.926Z,25.20
2019-02-07T02:43:33.560Z,27.27
2019-02-07T02:46:36.420Z,27.63
2019-02-07T02:49:39.021Z,24.50
2019-02-07T02:52:41.717Z,27.53
2019-02-07T02:55:44.785Z,25.33
2019-02-07T02:58:47.555Z,28.27
2019-02-07T03:02:12.514Z,34.13
2019-02-07T03:05:33.431Z,25.47
2019-02-07T03:09:01.593Z,22.57
2019-02-07T03:12:39.934Z,20.57
2019-02-07T03:15:58.891Z,25.20
2019-02-07T03:19:20.947Z,24.57
2019-02-07T03:22:39.475Z,24.70
2019-02-07T03:26:00.591Z,23.77
2019-02-07T03:29:21.576Z,28.43
2019-02-07T03:32:53.690Z,25.20
2019-02-07T03:36:14.571Z,27.80
2019-02-07T03:39:35.310Z,22.47
2019-02-07T03:42:53.191Z,27.60
2019-02-07T03:46:14.755Z,27.77
2019-02-07T03:49:22.850Z,24.27
2019-02-07T03:52:32.785Z,26.33
2019-02-07T03:56:01.086Z,26.90
2019-02-07T03:59:14.962Z,25.57
2019-02-07T04:02:35.962Z,28.50
2019-02-07T04:05:58.206Z,25.80
2019-02-07T04:09:19.071Z,28.70
2019-02-07T04:12:47.557Z,25.43
2019-02-07T04:16:15.136Z,29.63
2019-02-07T04:19:36.822Z,31.50
2019-02-07T04:22:52.265Z,29.27
2019-02-07T04:26:26.534Z,28.57
2019-02-07T04:30:00.781Z,25.10
2019-02-07T04:33:21.803Z,28.07
2019-02-07T04:36:47.249Z,28.37
2019-02-07T04:40:22.144Z,28.17
2019-02-07T04:43:56.641Z,29.00
2019-02-07T04:47:17.401Z,28.40
2019-02-07T04:50:38.365Z,27.37
2019-02-07T04:54:03.942Z,25.50
2019-02-07T04:57:20.542Z,23.70
2019-02-07T05:00:33.626Z,25.23
2019-02-07T05:03:46.590Z,25.70
2019-02-07T05:07:07.634Z,25.17
2019-02-07T05:10:28.462Z,26.60
2019-02-07T05:13:49.448Z,25.47
2019-02-07T05:17:20.874Z,32.80
2019-02-07T05:20:42.101Z,28.30
2019-02-07T05:24:01.598Z,24.27
2019-02-07T05:27:15.917Z,26.70
2019-02-07T05:30:56.291Z,28.00
2019-02-07T05:34:24.614Z,29.50
2019-02-07T05:37:45.576Z,28.40
2019-02-07T05:41:26.588Z,28.30
2019-02-07T05:44:48.286Z,25.67
2019-02-07T05:48:16.607Z,25.17
2019-02-07T05:51:51.039Z,29.77
2019-02-07T05:55:16.310Z,28.60
2019-02-07T05:58:27.970Z,25.90
2019-02-07T06:01:59.416Z,28.53
2019-02-07T06:05:33.773Z,22.43
2019-02-07T06:08:58.924Z,27.60
2019-02-07T06:12:31.329Z,27.63
2019-02-07T06:15:44.490Z,28.73
2019-02-07T06:19:15.922Z,25.30
2019-02-07T06:22:36.939Z,28.97
2019-02-07T06:26:02.050Z,29.83
2019-02-07T06:29:33.251Z,29.60
2019-02-07T06:32:55.391Z,27.40
2019-02-07T06:36:23.800Z,32.00
2019-02-07T06:39:33.694Z,28.00
2019-02-07T06:42:55.876Z,26.63
2019-02-07T06:46:30.381Z,27.70
2019-02-07T06:50:07.910Z,25.00
2019-02-07T06:53:36.130Z,30.03
2019-02-07T06:56:57.029Z,29.90
2019-02-07T07:00:22.580Z,27.87
2019-02-07T07:03:43.895Z,27.43
2019-02-07T07:07:15.162Z,28.80
2019-02-07T07:10:46.635Z,29.47
2019-02-07T07:14:14.675Z,33.80
2019-02-07T07:17:43.434Z,30.37
2019-02-07T07:21:05.491Z,30.10
2019-02-07T07:24:26.584Z,27.17
2019-02-07T07:27:43.147Z,32.77
2019-02-07T07:31:03.265Z,36.10
2019-02-07T07:34:31.566Z,34.97
2019-02-07T07:37:53.607Z,32.63
2019-02-07T07:41:31.110Z,35.10
2019-02-07T07:44:56.015Z,28.23
2019-02-07T07:48:16.970Z,29.00
2019-02-07T07:51:42.776Z,31.23
2019-02-07T07:55:07.937Z,32.87
2019-02-07T07:58:29.454Z,29.23
2019-02-07T08:01:48.629Z,37.10
2019-02-07T08:04:59.409Z,33.40
2019-02-07T08:08:27.491Z,36.00
2019-02-07T08:11:37.207Z,30.63
2019-02-07T08:14:58.255Z,33.00
2019-02-07T08:18:19.261Z,32.10
2019-02-07T08:21:27.946Z,33.33
2019-02-07T08:24:53.071Z,32.53
2019-02-07T08:28:21.669Z,33.73
2019-02-07T08:31:33.231Z,36.20
2019-02-07T08:35:10.671Z,31.50
2019-02-07T08:38:38.493Z,31.23
2019-02-07T08:42:00.220Z,39.30
2019-02-07T08:45:33.676Z,34.83
2019-02-07T08:49:08.436Z,31.53
2019-02-07T08:52:28.939Z,33.17
2019-02-07T08:55:57.350Z,36.97
2019-02-07T08:59:19.717Z,30.53
2019-02-07T09:02:52.087Z,31.40
2019-02-07T09:06:29.725Z,30.33
2019-02-07T09:09:39.386Z,31.13
2019-02-07T09:13:00.461Z,30.03
2019-02-07T09:16:21.256Z,30.87
2019-02-07T09:19:55.715Z,29.27
2019-02-07T09:23:16.840Z,28.23
2019-02-07T09:26:41.578Z,33.90
2019-02-07T09:30:09.765Z,28.17
2019-02-07T09:33:30.770Z,31.60
2019-02-07T09:36:58.829Z,30.13
2019-02-07T09:40:16.731Z,31.33
2019-02-07T09:43:28.482Z,31.40
2019-02-07T09:46:56.553Z,28.50
2019-02-07T09:50:37.240Z,28.30
2019-02-07T09:53:58.004Z,30.03
2019-02-07T09:57:18.729Z,26.80
2019-02-07T10:00:27.476Z,30.20
2019-02-07T10:03:40.499Z,26.97
2019-02-07T10:07:05.676Z,30.10
2019-02-07T10:10:31.263Z,27.27
2019-02-07T10:13:48.526Z,26.90
2019-02-07T10:17:09.079Z,27.87
2019-02-07T10:20:40.345Z,25.17
2019-02-07T10:24:01.735Z,26.37
2019-02-07T10:27:39.254Z,21.80
2019-02-07T10:31:07.489Z,23.10
2019-02-07T10:34:35.571Z,24.60
2019-02-07T10:38:03.625Z,25.97
2019-02-07T10:41:14.906Z,27.33
2019-02-07T10:44:49.434Z,25.80
2019-02-07T10:48:14.528Z,24.00
2019-02-07T10:51:42.683Z,21.23
2019-02-07T10:54:56.522Z,23.17
2019-02-07T10:58:17.684Z,22.73
2019-02-07T11:01:39.930Z,21.93
2019-02-07T11:04:58.905Z,21.50
2019-02-07T11:08:11.660Z,22.87
2019-02-07T11:11:20.971Z,22.93
2019-02-07T11:14:42.092Z,21.63
2019-02-07T11:18:01.301Z,21.03
2019-02-07T11:21:22.183Z,21.73
2019-02-07T11:24:50.298Z,18.43
2019-02-07T11:28:13.503Z,20.63
2019-02-07T11:31:35.411Z,19.70
2019-02-07T11:34:48.620Z,19.30
2019-02-07T11:38:03.113Z,17.60
2019-02-07T11:41:33.158Z,15.20
2019-02-07T11:44:54.279Z,17.90
2019-02-07T11:48:19.621Z,17.63
2019-02-07T11:51:48.018Z,14.67
2019-02-07T11:54:59.444Z,13.90
2019-02-07T11:58:30.770Z,12.53
2019-02-07T12:02:08.877Z,12.77
2019-02-07T12:05:24.534Z,13.97
2019-02-07T12:08:38.755Z,14.33
2019-02-07T12:11:56.114Z,12.97
2019-02-07T12:15:17.035Z,11.37
2019-02-07T12:18:37.908Z,14.63
2019-02-07T12:22:18.220Z,11.47
2019-02-07T12:25:44.198Z,13.77
2019-02-07T12:29:06.339Z,13.87
2019-02-07T12:32:25.628Z,15.13
2019-02-07T12:35:47.681Z,11.10
2019-02-07T12:39:09.831Z,16.30
2019-02-07T12:42:47.394Z,11.97
2019-02-07T12:46:18.593Z,17.00
2019-02-07T12:49:39.479Z,15.93
2019-02-07T12:53:12.343Z,15.70
2019-02-07T12:56:34.742Z,18.83
2019-02-07T12:59:58.168Z,17.73
2019-02-07T13:03:14.642Z,14.77
2019-02-07T13:06:35.556Z,17.43
2019-02-07T13:09:48.429Z,19.03
2019-02-07T13:13:04.643Z,14.03
2019-02-07T13:16:18.123Z,12.03
2019-02-07T13:19:40.893Z,15.03
2019-02-07T13:23:02.027Z,14.53
2019-02-07T13:26:22.883Z,11.73
2019-02-07T13:29:45.145Z,12.03
2019-02-07T13:33:00.146Z,14.30
2019-02-07T13:36:22.168Z,16.43
2019-02-07T13:39:43.461Z,15.00
2019-02-07T13:43:17.928Z,17.57
2019-02-07T13:46:41.075Z,16.13
2019-02-07T13:49:58.568Z,14.70
2019-02-07T13:53:18.604Z,19.50
2019-02-07T13:56:40.781Z,14.53
2019-02-07T14:00:04.585Z,17.93
2019-02-07T14:03:31.333Z,13.03
2019-02-07T14:06:56.900Z,17.00
2019-02-07T14:10:12.273Z,8.80
2019-02-07T14:13:34.425Z,15.00
2019-02-07T14:16:59.652Z,14.27
2019-02-07T14:20:12.008Z,11.90
2019-02-07T14:23:37.907Z,12.57
2019-02-07T14:26:54.625Z,11.27
2019-02-07T14:30:25.881Z,12.67
2019-02-07T14:33:46.980Z,12.17
2019-02-07T14:36:58.201Z,11.80
2019-02-07T14:40:17.677Z,10.90
2019-02-07T14:43:29.124Z,17.83
2019-02-07T14:46:51.117Z,14.33
2019-02-07T14:49:53.746Z,19.77
2019-02-07T14:52:56.500Z,17.10
2019-02-07T14:55:59.504Z,11.60
2019-02-07T14:59:02.204Z,21.33
2019-02-07T15:02:04.950Z,16.70
2019-02-07T15:05:09.110Z,17.33
2019-02-07T15:08:11.908Z,23.77
2019-02-07T15:11:15.682Z,14.33
2019-02-07T15:14:18.924Z,11.07
2019-02-07T15:17:21.606Z,18.80
2019-02-07T15:20:26.339Z,22.80
2019-02-07T15:23:28.902Z,17.00
2019-02-07T15:26:31.655Z,14.87
2019-02-07T15:29:34.490Z,14.83
2019-02-07T15:32:37.315Z,15.23
2019-02-07T15:35:43.425Z,18.93
2019-02-07T15:38:46.128Z,24.27
2019-02-07T15:41:49.103Z,11.03
2019-02-07T15:44:55.020Z,13.10
2019-02-07T15:47:57.769Z,13.70
2019-02-07T15:51:00.562Z,16.13
2019-02-07T15:54:03.935Z,16.33
2019-02-07T15:57:06.513Z,23.33
2019-02-07T16:00:30.810Z,16.13
2019-02-07T16:03:47.494Z,16.50
2019-02-07T16:06:50.081Z,15.67
2019-02-07T16:09:52.818Z,15.47
2019-02-07T16:12:55.510Z,16.00
2019-02-07T16:15:59.154Z,15.70
2019-02-07T16:19:01.937Z,10.43
2019-02-07T16:22:04.633Z,9.13
2019-02-07T16:25:08.900Z,23.07
2019-02-07T16:28:11.448Z,8.73
2019-02-07T16:31:16.375Z,14.23
2019-02-07T16:34:19.028Z,13.30
2019-02-07T16:37:21.856Z,13.17
2019-02-07T16:40:24.644Z,13.07
2019-02-07T16:43:27.513Z,15.57
2019-02-07T16:46:30.162Z,10.63
2019-02-07T16:49:33.008Z,14.43
2019-02-07T16:52:35.819Z,16.47
2019-02-07T16:55:38.614Z,23.47
2019-02-07T16:58:42.347Z,13.13
2019-02-07T17:01:45.014Z,16.00
2019-02-07T17:04:47.844Z,10.57
2019-02-07T17:07:50.725Z,18.93
2019-02-07T17:10:53.377Z,11.70
2019-02-07T17:13:56.163Z,9.87
2019-02-07T17:16:58.802Z,15.50
2019-02-07T17:20:01.406Z,9.20
2019-02-07T17:23:04.607Z,9.87
2019-02-07T17:26:07.377Z,8.53
2019-02-07T17:29:10.199Z,19.40
2019-02-07T17:32:13.243Z,13.73
2019-02-07T17:35:16.462Z,11.33
2019-02-07T17:38:19.185Z,14.67
2019-02-07T17:41:21.862Z,13.37
2019-02-07T17:44:24.597Z,13.83
2019-02-07T17:47:27.223Z,18.60
2019-02-07T17:50:31.622Z,12.60
2019-02-07T17:53:35.224Z,14.43
2019-02-07T17:56:37.894Z,11.60
2019-02-07T17:59:40.593Z,17.03
2019-02-07T18:02:43.271Z,13.13
2019-02-07T18:05:45.952Z,8.43
2019-02-07T18:08:48.553Z,9.07
2019-02-07T18:11:51.322Z,7.60
2019-02-07T18:14:53.943Z,8.93
2019-02-07T18:17:57.240Z,8.93
2019-02-07T18:21:00.263Z,10.67
2019-02-07T18:24:03.749Z,12.23
2019-02-07T18:27:06.647Z,5.97
2019-02-07T18:30:16.673Z,12.10
2019-02-07T18:33:19.449Z,10.03
2019-02-07T18:36:22.161Z,7.10
2019-02-07T18:39:25.018Z,11.70
2019-02-07T18:42:28.065Z,8.50
2019-02-07T18:45:30.808Z,9.73
2019-02-07T18:48:33.574Z,10.00
2019-02-07T18:51:45.298Z,6.27
2019-02-07T18:54:40.848Z,9.97
2019-02-07T18:57:43.660Z,16.20
2019-02-07T19:00:46.273Z,14.00
2019-02-07T19:03:49.040Z,5.40
2019-02-07T19:06:51.753Z,13.90
2019-02-07T19:09:54.533Z,8.00
2019-02-07T19:12:57.315Z,4.30
2019-02-07T19:16:10.104Z,10.80
2019-02-07T19:19:12.768Z,8.00
2019-02-07T19:22:15.508Z,9.53
2019-02-07T19:25:18.297Z,11.77
2019-02-07T19:28:21.264Z,7.53
2019-02-07T19:31:23.991Z,13.87
2019-02-07T19:34:26.699Z,8.17
2019-02-07T19:37:29.419Z,12.07
2019-02-07T19:40:32.204Z,15.03
2019-02-07T19:43:34.767Z,8.27
2019-02-07T19:46:37.482Z,11.67
2019-02-07T19:49:40.363Z,12.40
2019-02-07T19:52:43.192Z,11.00
2019-02-07T19:55:45.945Z,8.20
2019-02-07T19:58:48.662Z,11.43
2019-02-07T20:01:51.417Z,9.60
2019-02-07T20:04:54.177Z,12.27
2019-02-07T20:07:57.207Z,14.17
2019-02-07T20:10:59.863Z,6.83
2019-02-07T20:14:02.732Z,17.87
2019-02-07T20:17:05.433Z,12.20
2019-02-07T20:20:08.834Z,8.07
2019-02-07T20:23:11.492Z,9.13
2019-02-07T20:26:14.873Z,11.47
2019-02-07T20:29:17.563Z,8.10
2019-02-07T20:32:20.339Z,9.13
2019-02-07T20:35:23.135Z,9.67
2019-02-07T20:38:25.850Z,9.23
2019-02-07T20:41:28.423Z,7.27
2019-02-07T20:44:31.194Z,14.00
2019-02-07T20:47:33.859Z,6.73
2019-02-07T20:50:36.994Z,12.60
2019-02-07T20:53:39.727Z,13.50
2019-02-07T20:56:42.394Z,5.63
2019-02-07T20:59:45.138Z,13.17
2019-02-07T21:02:47.967Z,8.40
2019-02-07T21:05:50.787Z,9.53
2019-02-07T21:08:53.455Z,10.23
2019-02-07T21:11:56.262Z,8.50
2019-02-07T21:14:59.033Z,9.23
2019-02-07T21:18:01.764Z,10.03
2019-02-07T21:21:04.647Z,7.20
2019-02-07T21:24:07.834Z,12.40
2019-02-07T21:27:10.594Z,11.50
2019-02-07T21:30:17.324Z,11.23
2019-02-07T21:33:21.405Z,6.50
2019-02-07T21:36:24.152Z,11.20
2019-02-07T21:39:26.939Z,13.07
2019-02-07T21:42:29.628Z,8.03
2019-02-07T21:45:32.407Z,8.73
2019-02-07T21:48:35.237Z,10.40
2019-02-07T21:51:38.923Z,8.10
2019-02-07T21:54:41.678Z,6.53
2019-02-07T21:57:44.623Z,7.80
2019-02-07T22:00:47.534Z,6.63
2019-02-07T22:03:50.383Z,11.67
2019-02-07T22:06:59.598Z,7.57
2019-02-07T22:09:58.972Z,11.93
2019-02-07T22:13:07.674Z,10.17
2019-02-07T22:16:06.258Z,8.37
2019-02-07T22:19:09.008Z,9.60
2019-02-07T22:22:11.781Z,18.90
2019-02-07T22:25:15.812Z,9.73
2019-02-07T22:28:18.712Z,14.10
2019-02-07T22:31:21.442Z,10.40
2019-02-07T22:34:24.253Z,10.77
2019-02-07T22:37:27.063Z,10.27
2019-02-07T22:40:29.758Z,16.17
2019-02-07T22:43:32.533Z,13.67
2019-02-07T22:46:35.196Z,11.57
2019-02-07T22:49:37.914Z,11.30
2019-02-07T22:52:47.932Z,13.83
2019-02-07T22:55:50.696Z,11.73
2019-02-07T22:58:55.311Z,13.03
2019-02-07T23:01:58.138Z,9.40
2019-02-07T23:05:00.927Z,9.20
2019-02-07T23:08:03.964Z,10.10
2019-02-07T23:11:11.717Z,10.33
2019-02-07T23:14:14.422Z,13.80
2019-02-07T23:17:17.182Z,13.50
2019-02-07T23:20:21.003Z,10.37
2019-02-07T23:23:23.699Z,7.30
2019-02-07T23:26:26.491Z,7.33
2019-02-07T23:29:29.157Z,8.73
2019-02-07T23:32:31.937Z,11.50
2019-02-07T23:35:34.715Z,13.37
2019-02-07T23:38:37.508Z,15.03
2019-02-07T23:41:40.261Z,11.80
2019-02-07T23:44:43.307Z,12.07
2019-02-07T23:47:45.994Z,11.63
2019-02-07T23:50:48.705Z,10.13
2019-02-07T23:53:51.415Z,12.73
2019-02-07T23:56:56.163Z,10.23
